sensor_id;sensor_type;location;lat;lon;timestamp;P1;durP1;ratioP1;P2;durP2;ratioP2
11185;SDS011;5649;52.422;13.754;2022-07-23T00:01:37;11.40;;;4.60;;
11185;SDS011;5649;52.422;13.754;2022-07-23T00:04:03;3.40;;;2.77;;
11185;SDS011;5649;52.422;13.754;2022-07-23T00:06:29;5.93;;;3.10;;
11185;SDS011;5649;52.422;13.754;2022-07-23T00:08:55;11.10;;;3.83;;
11185;SDS011;5649;52.422;13.754;2022-07-23T00:11:21;4.20;;;2.63;;
11185;SDS011;5649;52.422;13.754;2022-07-23T00:13:47;4.90;;;2.80;;
11185;SDS011;5649;52.422;13.754;2022-07-23T00:16:13;9.93;;;3.70;;
11185;SDS011;5649;52.422;13.754;2022-07-23T00:18:39;3.33;;;3.00;;
11185;SDS011;5649;52.422;13.754;2022-07-23T00:21:06;2.90;;;2.37;;
11185;SDS011;5649;52.422;13.754;2022-07-23T00:23:32;5.00;;;2.93;;
11185;SDS011;5649;52.422;13.754;2022-07-23T00:25:58;7.53;;;2.77;;
11185;SDS011;5649;52.422;13.754;2022-07-23T00:28:24;11.00;;;3.50;;
11185;SDS011;5649;52.422;13.754;2022-07-23T00:30:50;6.23;;;3.53;;
11185;SDS011;5649;52.422;13.754;2022-07-23T00:33:17;10.90;;;3.43;;
11185;SDS011;5649;52.422;13.754;2022-07-23T00:35:43;8.23;;;3.70;;
11185;SDS011;5649;52.422;13.754;2022-07-23T00:38:09;3.00;;;2.80;;
11185;SDS011;5649;52.422;13.754;2022-07-23T00:40:36;4.63;;;4.20;;
11185;SDS011;5649;52.422;13.754;2022-07-23T00:43:03;3.90;;;3.07;;
11185;SDS011;5649;52.422;13.754;2022-07-23T00:45:29;5.80;;;3.33;;
11185;SDS011;5649;52.422;13.754;2022-07-23T00:47:55;4.60;;;2.97;;
11185;SDS011;5649;52.422;13.754;2022-07-23T00:50:21;2.80;;;2.57;;
11185;SDS011;5649;52.422;13.754;2022-07-23T00:52:47;3.77;;;3.43;;
11185;SDS011;5649;52.422;13.754;2022-07-23T00:55:13;6.07;;;3.07;;
11185;SDS011;5649;52.422;13.754;2022-07-23T00:57:40;7.60;;;3.37;;
11185;SDS011;5649;52.422;13.754;2022-07-23T01:00:07;4.93;;;3.30;;
11185;SDS011;5649;52.422;13.754;2022-07-23T01:02:33;5.90;;;3.23;;
11185;SDS011;5649;52.422;13.754;2022-07-23T01:04:59;8.20;;;3.93;;
11185;SDS011;5649;52.422;13.754;2022-07-23T01:07:25;6.27;;;3.47;;
11185;SDS011;5649;52.422;13.754;2022-07-23T01:09:52;4.50;;;3.40;;
11185;SDS011;5649;52.422;13.754;2022-07-23T01:12:18;3.77;;;3.20;;
11185;SDS011;5649;52.422;13.754;2022-07-23T01:14:44;5.90;;;2.70;;
11185;SDS011;5649;52.422;13.754;2022-07-23T01:17:10;8.30;;;4.37;;
11185;SDS011;5649;52.422;13.754;2022-07-23T01:19:36;4.60;;;2.83;;
11185;SDS011;5649;52.422;13.754;2022-07-23T01:22:03;4.93;;;3.10;;
11185;SDS011;5649;52.422;13.754;2022-07-23T01:24:29;3.67;;;3.23;;
11185;SDS011;5649;52.422;13.754;2022-07-23T01:26:55;3.87;;;3.33;;
11185;SDS011;5649;52.422;13.754;2022-07-23T01:29:21;3.57;;;3.27;;
11185;SDS011;5649;52.422;13.754;2022-07-23T01:31:47;5.70;;;3.20;;
11185;SDS011;5649;52.422;13.754;2022-07-23T01:34:13;3.53;;;3.10;;
11185;SDS011;5649;52.422;13.754;2022-07-23T01:36:40;3.93;;;3.23;;
11185;SDS011;5649;52.422;13.754;2022-07-23T01:39:06;10.13;;;3.70;;
11185;SDS011;5649;52.422;13.754;2022-07-23T01:41:32;4.90;;;3.27;;
11185;SDS011;5649;52.422;13.754;2022-07-23T01:43:58;5.10;;;3.40;;
11185;SDS011;5649;52.422;13.754;2022-07-23T01:46:24;4.13;;;3.47;;
11185;SDS011;5649;52.422;13.754;2022-07-23T01:48:50;3.73;;;3.20;;
11185;SDS011;5649;52.422;13.754;2022-07-23T01:51:16;9.20;;;3.60;;
11185;SDS011;5649;52.422;13.754;2022-07-23T01:53:42;7.97;;;3.40;;
11185;SDS011;5649;52.422;13.754;2022-07-23T01:56:08;8.93;;;3.27;;
11185;SDS011;5649;52.422;13.754;2022-07-23T01:58:35;8.00;;;3.00;;
11185;SDS011;5649;52.422;13.754;2022-07-23T02:01:01;10.00;;;3.80;;
11185;SDS011;5649;52.422;13.754;2022-07-23T02:03:27;4.27;;;3.30;;
11185;SDS011;5649;52.422;13.754;2022-07-23T02:05:53;4.30;;;3.67;;
11185;SDS011;5649;52.422;13.754;2022-07-23T02:08:19;8.00;;;3.80;;
11185;SDS011;5649;52.422;13.754;2022-07-23T02:10:45;6.60;;;3.83;;
11185;SDS011;5649;52.422;13.754;2022-07-23T02:13:11;27.90;;;4.43;;
11185;SDS011;5649;52.422;13.754;2022-07-23T02:15:37;6.80;;;3.50;;
11185;SDS011;5649;52.422;13.754;2022-07-23T02:18:03;4.37;;;3.20;;
11185;SDS011;5649;52.422;13.754;2022-07-23T02:20:29;6.13;;;3.63;;
11185;SDS011;5649;52.422;13.754;2022-07-23T02:22:55;5.27;;;2.43;;
11185;SDS011;5649;52.422;13.754;2022-07-23T02:25:21;6.90;;;3.27;;
11185;SDS011;5649;52.422;13.754;2022-07-23T02:27:47;6.17;;;3.30;;
11185;SDS011;5649;52.422;13.754;2022-07-23T02:30:13;3.63;;;3.33;;
11185;SDS011;5649;52.422;13.754;2022-07-23T02:32:39;4.20;;;3.80;;
11185;SDS011;5649;52.422;13.754;2022-07-23T02:35:06;3.83;;;3.17;;
11185;SDS011;5649;52.422;13.754;2022-07-23T02:37:32;10.63;;;3.67;;
11185;SDS011;5649;52.422;13.754;2022-07-23T02:39:58;5.83;;;3.50;;
11185;SDS011;5649;52.422;13.754;2022-07-23T02:42:24;4.20;;;3.17;;
11185;SDS011;5649;52.422;13.754;2022-07-23T02:44:51;4.77;;;3.13;;
11185;SDS011;5649;52.422;13.754;2022-07-23T02:47:17;10.30;;;3.50;;
11185;SDS011;5649;52.422;13.754;2022-07-23T02:49:43;4.77;;;2.90;;
11185;SDS011;5649;52.422;13.754;2022-07-23T02:52:09;6.87;;;3.50;;
11185;SDS011;5649;52.422;13.754;2022-07-23T02:54:35;5.13;;;3.30;;
11185;SDS011;5649;52.422;13.754;2022-07-23T02:57:02;6.03;;;3.70;;
11185;SDS011;5649;52.422;13.754;2022-07-23T02:59:28;9.17;;;3.70;;
11185;SDS011;5649;52.422;13.754;2022-07-23T03:01:54;5.60;;;3.20;;
11185;SDS011;5649;52.422;13.754;2022-07-23T03:04:20;5.73;;;3.50;;
11185;SDS011;5649;52.422;13.754;2022-07-23T03:06:46;5.53;;;3.50;;
11185;SDS011;5649;52.422;13.754;2022-07-23T03:09:12;7.10;;;4.30;;
11185;SDS011;5649;52.422;13.754;2022-07-23T03:11:38;7.00;;;3.80;;
11185;SDS011;5649;52.422;13.754;2022-07-23T03:14:04;6.73;;;4.00;;
11185;SDS011;5649;52.422;13.754;2022-07-23T03:16:31;11.23;;;3.70;;
11185;SDS011;5649;52.422;13.754;2022-07-23T03:18:57;3.80;;;3.40;;
11185;SDS011;5649;52.422;13.754;2022-07-23T03:21:23;7.87;;;3.70;;
11185;SDS011;5649;52.422;13.754;2022-07-23T03:23:49;4.40;;;3.67;;
11185;SDS011;5649;52.422;13.754;2022-07-23T03:26:15;5.83;;;2.93;;
11185;SDS011;5649;52.422;13.754;2022-07-23T03:28:41;5.10;;;3.40;;
11185;SDS011;5649;52.422;13.754;2022-07-23T03:31:07;5.10;;;3.30;;
11185;SDS011;5649;52.422;13.754;2022-07-23T03:33:33;5.97;;;3.27;;
11185;SDS011;5649;52.422;13.754;2022-07-23T03:35:59;3.23;;;3.03;;
11185;SDS011;5649;52.422;13.754;2022-07-23T03:38:25;7.67;;;4.00;;
11185;SDS011;5649;52.422;13.754;2022-07-23T03:40:51;7.50;;;3.90;;
11185;SDS011;5649;52.422;13.754;2022-07-23T03:43:17;13.33;;;4.00;;
11185;SDS011;5649;52.422;13.754;2022-07-23T03:45:43;5.13;;;3.50;;
11185;SDS011;5649;52.422;13.754;2022-07-23T03:48:09;5.97;;;3.93;;
11185;SDS011;5649;52.422;13.754;2022-07-23T03:50:35;4.20;;;3.37;;
11185;SDS011;5649;52.422;13.754;2022-07-23T03:53:02;7.80;;;4.13;;
11185;SDS011;5649;52.422;13.754;2022-07-23T03:55:28;5.27;;;3.70;;
11185;SDS011;5649;52.422;13.754;2022-07-23T03:57:54;4.83;;;3.83;;
11185;SDS011;5649;52.422;13.754;2022-07-23T04:00:20;5.40;;;3.30;;
11185;SDS011;5649;52.422;13.754;2022-07-23T04:02:46;6.87;;;3.80;;
11185;SDS011;5649;52.422;13.754;2022-07-23T04:05:12;4.80;;;3.33;;
11185;SDS011;5649;52.422;13.754;2022-07-23T04:07:38;7.67;;;3.90;;
11185;SDS011;5649;52.422;13.754;2022-07-23T04:10:05;7.43;;;3.90;;
11185;SDS011;5649;52.422;13.754;2022-07-23T04:12:31;10.60;;;3.43;;
11185;SDS011;5649;52.422;13.754;2022-07-23T04:14:57;9.03;;;4.20;;
11185;SDS011;5649;52.422;13.754;2022-07-23T04:17:23;5.17;;;3.27;;
11185;SDS011;5649;52.422;13.754;2022-07-23T04:19:49;4.77;;;3.47;;
11185;SDS011;5649;52.422;13.754;2022-07-23T04:22:15;5.00;;;3.67;;
11185;SDS011;5649;52.422;13.754;2022-07-23T04:24:41;7.70;;;3.43;;
11185;SDS011;5649;52.422;13.754;2022-07-23T04:27:07;4.40;;;3.00;;
11185;SDS011;5649;52.422;13.754;2022-07-23T04:29:33;8.73;;;4.23;;
11185;SDS011;5649;52.422;13.754;2022-07-23T04:31:59;9.23;;;3.97;;
11185;SDS011;5649;52.422;13.754;2022-07-23T04:34:26;4.50;;;3.37;;
11185;SDS011;5649;52.422;13.754;2022-07-23T04:36:52;7.57;;;3.87;;
11185;SDS011;5649;52.422;13.754;2022-07-23T04:39:18;4.30;;;3.30;;
11185;SDS011;5649;52.422;13.754;2022-07-23T04:41:44;6.10;;;3.70;;
11185;SDS011;5649;52.422;13.754;2022-07-23T04:44:10;4.80;;;2.83;;
11185;SDS011;5649;52.422;13.754;2022-07-23T04:46:36;19.53;;;4.67;;
11185;SDS011;5649;52.422;13.754;2022-07-23T04:49:02;13.17;;;3.50;;
11185;SDS011;5649;52.422;13.754;2022-07-23T04:51:28;9.33;;;3.77;;
11185;SDS011;5649;52.422;13.754;2022-07-23T04:53:55;5.27;;;3.10;;
11185;SDS011;5649;52.422;13.754;2022-07-23T04:56:21;4.77;;;3.87;;
11185;SDS011;5649;52.422;13.754;2022-07-23T04:58:47;3.03;;;2.70;;
11185;SDS011;5649;52.422;13.754;2022-07-23T05:01:13;9.63;;;3.97;;
11185;SDS011;5649;52.422;13.754;2022-07-23T05:03:39;4.80;;;2.87;;
11185;SDS011;5649;52.422;13.754;2022-07-23T05:06:05;14.63;;;3.67;;
11185;SDS011;5649;52.422;13.754;2022-07-23T05:08:31;8.67;;;3.63;;
11185;SDS011;5649;52.422;13.754;2022-07-23T05:10:57;17.53;;;4.37;;
11185;SDS011;5649;52.422;13.754;2022-07-23T05:13:23;3.97;;;3.27;;
11185;SDS011;5649;52.422;13.754;2022-07-23T05:15:49;10.87;;;4.20;;
11185;SDS011;5649;52.422;13.754;2022-07-23T05:18:15;9.37;;;3.80;;
11185;SDS011;5649;52.422;13.754;2022-07-23T05:20:41;11.50;;;3.33;;
11185;SDS011;5649;52.422;13.754;2022-07-23T05:23:07;16.17;;;3.97;;
11185;SDS011;5649;52.422;13.754;2022-07-23T05:25:33;23.27;;;4.80;;
11185;SDS011;5649;52.422;13.754;2022-07-23T05:27:59;13.47;;;4.17;;
11185;SDS011;5649;52.422;13.754;2022-07-23T05:30:25;6.60;;;3.90;;
11185;SDS011;5649;52.422;13.754;2022-07-23T05:32:51;9.57;;;3.70;;
11185;SDS011;5649;52.422;13.754;2022-07-23T05:35:17;6.20;;;3.60;;
11185;SDS011;5649;52.422;13.754;2022-07-23T05:37:43;4.40;;;3.30;;
11185;SDS011;5649;52.422;13.754;2022-07-23T05:40:10;8.17;;;3.73;;
11185;SDS011;5649;52.422;13.754;2022-07-23T05:42:36;7.50;;;3.17;;
11185;SDS011;5649;52.422;13.754;2022-07-23T05:45:02;15.47;;;4.00;;
11185;SDS011;5649;52.422;13.754;2022-07-23T05:47:29;4.90;;;3.40;;
11185;SDS011;5649;52.422;13.754;2022-07-23T05:49:54;7.47;;;3.20;;
11185;SDS011;5649;52.422;13.754;2022-07-23T05:52:20;8.43;;;4.40;;
11185;SDS011;5649;52.422;13.754;2022-07-23T05:54:46;6.70;;;3.77;;
11185;SDS011;5649;52.422;13.754;2022-07-23T05:57:12;4.53;;;3.60;;
11185;SDS011;5649;52.422;13.754;2022-07-23T05:59:38;5.63;;;3.23;;
11185;SDS011;5649;52.422;13.754;2022-07-23T06:02:04;5.40;;;2.83;;
11185;SDS011;5649;52.422;13.754;2022-07-23T06:04:31;15.13;;;4.00;;
11185;SDS011;5649;52.422;13.754;2022-07-23T06:06:57;25.73;;;3.53;;
11185;SDS011;5649;52.422;13.754;2022-07-23T06:09:22;4.87;;;3.30;;
11185;SDS011;5649;52.422;13.754;2022-07-23T06:11:48;4.33;;;2.97;;
11185;SDS011;5649;52.422;13.754;2022-07-23T06:14:14;4.50;;;2.73;;
11185;SDS011;5649;52.422;13.754;2022-07-23T06:16:41;6.23;;;3.03;;
11185;SDS011;5649;52.422;13.754;2022-07-23T06:19:07;12.90;;;3.80;;
11185;SDS011;5649;52.422;13.754;2022-07-23T06:21:33;11.60;;;3.70;;
11185;SDS011;5649;52.422;13.754;2022-07-23T06:23:59;5.63;;;2.83;;
11185;SDS011;5649;52.422;13.754;2022-07-23T06:26:25;4.77;;;2.40;;
11185;SDS011;5649;52.422;13.754;2022-07-23T06:28:51;6.90;;;3.30;;
11185;SDS011;5649;52.422;13.754;2022-07-23T06:31:17;8.27;;;2.97;;
11185;SDS011;5649;52.422;13.754;2022-07-23T06:33:43;6.43;;;3.50;;
11185;SDS011;5649;52.422;13.754;2022-07-23T06:36:09;6.00;;;3.13;;
11185;SDS011;5649;52.422;13.754;2022-07-23T06:38:56;9.93;;;2.60;;
11185;SDS011;5649;52.422;13.754;2022-07-23T06:41:22;8.90;;;2.67;;
11185;SDS011;5649;52.422;13.754;2022-07-23T06:43:48;8.60;;;2.30;;
11185;SDS011;5649;52.422;13.754;2022-07-23T06:46:15;5.33;;;1.90;;
11185;SDS011;5649;52.422;13.754;2022-07-23T06:48:41;17.47;;;2.33;;
11185;SDS011;5649;52.422;13.754;2022-07-23T06:51:07;3.03;;;2.50;;
11185;SDS011;5649;52.422;13.754;2022-07-23T06:53:33;3.63;;;2.00;;
11185;SDS011;5649;52.422;13.754;2022-07-23T06:55:59;6.13;;;2.50;;
11185;SDS011;5649;52.422;13.754;2022-07-23T06:58:25;5.90;;;2.47;;
11185;SDS011;5649;52.422;13.754;2022-07-23T07:00:51;5.87;;;3.03;;
11185;SDS011;5649;52.422;13.754;2022-07-23T07:03:17;4.17;;;2.57;;
11185;SDS011;5649;52.422;13.754;2022-07-23T07:05:43;5.60;;;2.53;;
11185;SDS011;5649;52.422;13.754;2022-07-23T07:08:09;9.97;;;2.87;;
11185;SDS011;5649;52.422;13.754;2022-07-23T07:10:35;11.27;;;2.63;;
11185;SDS011;5649;52.422;13.754;2022-07-23T07:13:01;5.00;;;2.20;;
11185;SDS011;5649;52.422;13.754;2022-07-23T07:15:27;5.17;;;2.30;;
11185;SDS011;5649;52.422;13.754;2022-07-23T07:17:53;8.43;;;2.70;;
11185;SDS011;5649;52.422;13.754;2022-07-23T07:20:19;6.77;;;2.20;;
11185;SDS011;5649;52.422;13.754;2022-07-23T07:22:45;8.33;;;2.87;;
11185;SDS011;5649;52.422;13.754;2022-07-23T07:25:12;6.20;;;2.30;;
11185;SDS011;5649;52.422;13.754;2022-07-23T07:27:38;4.53;;;2.13;;
11185;SDS011;5649;52.422;13.754;2022-07-23T07:30:05;2.07;;;1.90;;
11185;SDS011;5649;52.422;13.754;2022-07-23T07:32:32;7.30;;;2.73;;
11185;SDS011;5649;52.422;13.754;2022-07-23T07:34:58;3.63;;;2.73;;
11185;SDS011;5649;52.422;13.754;2022-07-23T07:37:24;6.07;;;3.50;;
11185;SDS011;5649;52.422;13.754;2022-07-23T07:39:50;7.00;;;3.27;;
11185;SDS011;5649;52.422;13.754;2022-07-23T07:42:16;5.00;;;3.03;;
11185;SDS011;5649;52.422;13.754;2022-07-23T07:44:42;10.40;;;3.83;;
11185;SDS011;5649;52.422;13.754;2022-07-23T07:47:08;12.20;;;4.57;;
11185;SDS011;5649;52.422;13.754;2022-07-23T07:49:34;13.63;;;3.80;;
11185;SDS011;5649;52.422;13.754;2022-07-23T07:52:00;5.87;;;3.60;;
11185;SDS011;5649;52.422;13.754;2022-07-23T07:54:26;4.77;;;3.63;;
11185;SDS011;5649;52.422;13.754;2022-07-23T07:56:52;14.70;;;5.00;;
11185;SDS011;5649;52.422;13.754;2022-07-23T07:59:18;5.50;;;3.63;;
11185;SDS011;5649;52.422;13.754;2022-07-23T08:01:44;8.13;;;3.60;;
11185;SDS011;5649;52.422;13.754;2022-07-23T08:04:10;8.43;;;4.67;;
11185;SDS011;5649;52.422;13.754;2022-07-23T08:06:36;10.07;;;3.37;;
11185;SDS011;5649;52.422;13.754;2022-07-23T08:09:03;10.70;;;4.20;;
11185;SDS011;5649;52.422;13.754;2022-07-23T08:11:29;6.93;;;3.80;;
11185;SDS011;5649;52.422;13.754;2022-07-23T08:13:55;6.20;;;3.30;;
11185;SDS011;5649;52.422;13.754;2022-07-23T08:16:21;7.17;;;4.30;;
11185;SDS011;5649;52.422;13.754;2022-07-23T08:18:47;13.47;;;3.97;;
11185;SDS011;5649;52.422;13.754;2022-07-23T08:21:13;6.00;;;3.40;;
11185;SDS011;5649;52.422;13.754;2022-07-23T08:23:39;9.93;;;4.30;;
11185;SDS011;5649;52.422;13.754;2022-07-23T08:26:05;13.40;;;3.90;;
11185;SDS011;5649;52.422;13.754;2022-07-23T08:28:31;12.60;;;4.90;;
11185;SDS011;5649;52.422;13.754;2022-07-23T08:30:58;10.70;;;5.37;;
11185;SDS011;5649;52.422;13.754;2022-07-23T08:33:24;5.40;;;3.77;;
11185;SDS011;5649;52.422;13.754;2022-07-23T08:35:50;9.17;;;3.70;;
11185;SDS011;5649;52.422;13.754;2022-07-23T08:38:18;6.23;;;2.93;;
11185;SDS011;5649;52.422;13.754;2022-07-23T08:40:45;12.03;;;4.40;;
11185;SDS011;5649;52.422;13.754;2022-07-23T08:43:16;7.60;;;3.03;;
11185;SDS011;5649;52.422;13.754;2022-07-23T08:45:43;4.07;;;2.70;;
11185;SDS011;5649;52.422;13.754;2022-07-23T08:48:13;5.90;;;2.87;;
11185;SDS011;5649;52.422;13.754;2022-07-23T08:50:44;33.67;;;3.40;;
11185;SDS011;5649;52.422;13.754;2022-07-23T08:53:10;33.37;;;3.77;;
11185;SDS011;5649;52.422;13.754;2022-07-23T08:55:37;6.87;;;3.40;;
11185;SDS011;5649;52.422;13.754;2022-07-23T08:58:03;6.03;;;3.17;;
11185;SDS011;5649;52.422;13.754;2022-07-23T09:00:29;4.70;;;3.00;;
11185;SDS011;5649;52.422;13.754;2022-07-23T09:02:55;14.03;;;2.57;;
11185;SDS011;5649;52.422;13.754;2022-07-23T09:05:21;11.73;;;2.20;;
11185;SDS011;5649;52.422;13.754;2022-07-23T09:10:28;12.67;;;3.17;;
11185;SDS011;5649;52.422;13.754;2022-07-23T09:12:54;6.47;;;2.43;;
11185;SDS011;5649;52.422;13.754;2022-07-23T09:15:20;4.27;;;2.13;;
11185;SDS011;5649;52.422;13.754;2022-07-23T09:17:46;8.27;;;2.93;;
11185;SDS011;5649;52.422;13.754;2022-07-23T09:20:14;5.30;;;2.60;;
11185;SDS011;5649;52.422;13.754;2022-07-23T09:22:44;3.20;;;2.40;;
11185;SDS011;5649;52.422;13.754;2022-07-23T09:25:15;6.80;;;2.97;;
11185;SDS011;5649;52.422;13.754;2022-07-23T09:27:45;10.30;;;2.83;;
11185;SDS011;5649;52.422;13.754;2022-07-23T09:30:12;5.33;;;2.97;;
11185;SDS011;5649;52.422;13.754;2022-07-23T09:32:41;8.40;;;3.00;;
11185;SDS011;5649;52.422;13.754;2022-07-23T09:35:07;16.60;;;2.50;;
11185;SDS011;5649;52.422;13.754;2022-07-23T09:37:34;8.23;;;3.20;;
11185;SDS011;5649;52.422;13.754;2022-07-23T09:40:04;8.57;;;2.83;;
11185;SDS011;5649;52.422;13.754;2022-07-23T09:42:30;9.67;;;2.33;;
11185;SDS011;5649;52.422;13.754;2022-07-23T09:44:56;3.63;;;2.37;;
11185;SDS011;5649;52.422;13.754;2022-07-23T09:47:23;6.80;;;2.53;;
11185;SDS011;5649;52.422;13.754;2022-07-23T09:50:06;7.07;;;3.27;;
11185;SDS011;5649;52.422;13.754;2022-07-23T09:52:43;7.83;;;2.93;;
11185;SDS011;5649;52.422;13.754;2022-07-23T09:55:09;23.03;;;3.00;;
11185;SDS011;5649;52.422;13.754;2022-07-23T09:57:35;4.63;;;2.10;;
11185;SDS011;5649;52.422;13.754;2022-07-23T10:00:03;7.67;;;2.23;;
11185;SDS011;5649;52.422;13.754;2022-07-23T10:02:31;18.90;;;2.50;;
11185;SDS011;5649;52.422;13.754;2022-07-23T10:04:58;17.10;;;3.00;;
11185;SDS011;5649;52.422;13.754;2022-07-23T10:07:25;2.70;;;2.00;;
11185;SDS011;5649;52.422;13.754;2022-07-23T10:09:52;8.40;;;2.33;;
11185;SDS011;5649;52.422;13.754;2022-07-23T10:12:19;7.20;;;2.53;;
11185;SDS011;5649;52.422;13.754;2022-07-23T10:14:53;7.20;;;3.20;;
11185;SDS011;5649;52.422;13.754;2022-07-23T10:17:19;4.50;;;1.90;;
11185;SDS011;5649;52.422;13.754;2022-07-23T10:19:45;3.57;;;1.80;;
11185;SDS011;5649;52.422;13.754;2022-07-23T10:22:13;6.80;;;2.43;;
11185;SDS011;5649;52.422;13.754;2022-07-23T10:24:47;2.60;;;1.70;;
11185;SDS011;5649;52.422;13.754;2022-07-23T10:30:04;3.60;;;1.90;;
11185;SDS011;5649;52.422;13.754;2022-07-23T10:37:38;7.30;;;2.20;;
11185;SDS011;5649;52.422;13.754;2022-07-23T10:40:12;2.03;;;1.90;;
11185;SDS011;5649;52.422;13.754;2022-07-23T10:42:39;4.47;;;2.27;;
11185;SDS011;5649;52.422;13.754;2022-07-23T10:45:26;4.87;;;2.47;;
11185;SDS011;5649;52.422;13.754;2022-07-23T10:47:53;12.63;;;2.50;;
11185;SDS011;5649;52.422;13.754;2022-07-23T10:50:23;5.10;;;1.90;;
11185;SDS011;5649;52.422;13.754;2022-07-23T10:58:00;2.23;;;2.03;;
11185;SDS011;5649;52.422;13.754;2022-07-23T11:00:27;6.23;;;2.33;;
11185;SDS011;5649;52.422;13.754;2022-07-23T11:02:58;1.80;;;1.60;;
11185;SDS011;5649;52.422;13.754;2022-07-23T11:05:46;10.30;;;2.33;;
11185;SDS011;5649;52.422;13.754;2022-07-23T11:08:12;6.00;;;2.30;;
11185;SDS011;5649;52.422;13.754;2022-07-23T11:11:25;4.10;;;2.50;;
11185;SDS011;5649;52.422;13.754;2022-07-23T11:21:51;10.70;;;2.07;;
11185;SDS011;5649;52.422;13.754;2022-07-23T11:37:01;8.53;;;2.50;;
11185;SDS011;5649;52.422;13.754;2022-07-23T11:39:28;6.97;;;2.70;;
11185;SDS011;5649;52.422;13.754;2022-07-23T11:41:55;5.67;;;3.07;;
11185;SDS011;5649;52.422;13.754;2022-07-23T11:44:28;6.93;;;2.03;;
11185;SDS011;5649;52.422;13.754;2022-07-23T11:46:58;6.37;;;4.07;;
11185;SDS011;5649;52.422;13.754;2022-07-23T11:49:24;7.70;;;2.73;;
11185;SDS011;5649;52.422;13.754;2022-07-23T11:54:32;7.30;;;2.73;;
11185;SDS011;5649;52.422;13.754;2022-07-23T11:56:58;6.70;;;2.20;;
11185;SDS011;5649;52.422;13.754;2022-07-23T11:59:26;4.97;;;2.37;;
11185;SDS011;5649;52.422;13.754;2022-07-23T12:01:56;8.63;;;2.40;;
11185;SDS011;5649;52.422;13.754;2022-07-23T12:04:23;5.00;;;2.33;;
11185;SDS011;5649;52.422;13.754;2022-07-23T12:06:49;13.63;;;2.47;;
11185;SDS011;5649;52.422;13.754;2022-07-23T12:09:15;5.57;;;2.97;;
11185;SDS011;5649;52.422;13.754;2022-07-23T12:11:56;7.13;;;2.23;;
11185;SDS011;5649;52.422;13.754;2022-07-23T12:14:22;7.97;;;2.20;;
11185;SDS011;5649;52.422;13.754;2022-07-23T12:17:06;4.43;;;2.30;;
11185;SDS011;5649;52.422;13.754;2022-07-23T12:19:33;2.37;;;1.77;;
11185;SDS011;5649;52.422;13.754;2022-07-23T12:21:59;3.93;;;2.10;;
11185;SDS011;5649;52.422;13.754;2022-07-23T12:24:25;4.37;;;2.30;;
11185;SDS011;5649;52.422;13.754;2022-07-23T12:27:12;9.90;;;2.57;;
11185;SDS011;5649;52.422;13.754;2022-07-23T12:29:39;3.30;;;2.57;;
11185;SDS011;5649;52.422;13.754;2022-07-23T12:32:24;3.90;;;2.10;;
11185;SDS011;5649;52.422;13.754;2022-07-23T12:35:01;1.93;;;1.80;;
11185;SDS011;5649;52.422;13.754;2022-07-23T12:37:32;11.37;;;2.50;;
11185;SDS011;5649;52.422;13.754;2022-07-23T12:39:58;6.43;;;2.47;;
11185;SDS011;5649;52.422;13.754;2022-07-23T12:42:24;5.70;;;2.33;;
11185;SDS011;5649;52.422;13.754;2022-07-23T12:45:06;3.20;;;2.00;;
11185;SDS011;5649;52.422;13.754;2022-07-23T12:51:22;2.83;;;1.60;;
11185;SDS011;5649;52.422;13.754;2022-07-23T12:53:17;2.57;;;1.70;;
11185;SDS011;5649;52.422;13.754;2022-07-23T12:55:44;1.90;;;1.70;;
11185;SDS011;5649;52.422;13.754;2022-07-23T12:58:14;5.47;;;2.07;;
11185;SDS011;5649;52.422;13.754;2022-07-23T13:03:30;2.53;;;2.10;;
11185;SDS011;5649;52.422;13.754;2022-07-23T13:05:57;5.60;;;1.80;;
11185;SDS011;5649;52.422;13.754;2022-07-23T13:08:23;3.40;;;2.87;;
11185;SDS011;5649;52.422;13.754;2022-07-23T13:10:50;3.50;;;2.03;;
11185;SDS011;5649;52.422;13.754;2022-07-23T13:13:17;9.33;;;2.50;;
11185;SDS011;5649;52.422;13.754;2022-07-23T13:15:45;10.20;;;2.10;;
11185;SDS011;5649;52.422;13.754;2022-07-23T13:18:11;6.00;;;2.20;;
11185;SDS011;5649;52.422;13.754;2022-07-23T13:20:37;5.37;;;2.63;;
11185;SDS011;5649;52.422;13.754;2022-07-23T13:23:07;7.63;;;2.10;;
11185;SDS011;5649;52.422;13.754;2022-07-23T13:25:33;7.10;;;2.33;;
11185;SDS011;5649;52.422;13.754;2022-07-23T13:27:59;26.77;;;2.20;;
11185;SDS011;5649;52.422;13.754;2022-07-23T13:30:25;5.80;;;2.47;;
11185;SDS011;5649;52.422;13.754;2022-07-23T13:32:51;3.83;;;2.00;;
11185;SDS011;5649;52.422;13.754;2022-07-23T13:35:18;2.23;;;1.63;;
11185;SDS011;5649;52.422;13.754;2022-07-23T13:37:44;5.30;;;2.17;;
11185;SDS011;5649;52.422;13.754;2022-07-23T13:40:10;3.50;;;2.00;;
11185;SDS011;5649;52.422;13.754;2022-07-23T13:42:36;6.67;;;1.90;;
11185;SDS011;5649;52.422;13.754;2022-07-23T13:45:03;4.13;;;1.90;;
11185;SDS011;5649;52.422;13.754;2022-07-23T13:47:29;2.90;;;2.00;;
11185;SDS011;5649;52.422;13.754;2022-07-23T13:49:55;10.63;;;2.60;;
11185;SDS011;5649;52.422;13.754;2022-07-23T13:52:21;3.20;;;2.03;;
11185;SDS011;5649;52.422;13.754;2022-07-23T13:54:47;6.90;;;2.23;;
11185;SDS011;5649;52.422;13.754;2022-07-23T13:57:13;2.70;;;1.67;;
11185;SDS011;5649;52.422;13.754;2022-07-23T13:59:39;2.13;;;1.90;;
11185;SDS011;5649;52.422;13.754;2022-07-23T14:02:05;8.33;;;1.80;;
11185;SDS011;5649;52.422;13.754;2022-07-23T14:04:31;6.80;;;2.00;;
11185;SDS011;5649;52.422;13.754;2022-07-23T14:06:58;2.30;;;1.60;;
11185;SDS011;5649;52.422;13.754;2022-07-23T14:09:24;2.70;;;1.90;;
11185;SDS011;5649;52.422;13.754;2022-07-23T14:11:50;3.30;;;1.77;;
11185;SDS011;5649;52.422;13.754;2022-07-23T14:14:16;6.27;;;2.37;;
11185;SDS011;5649;52.422;13.754;2022-07-23T14:16:42;2.30;;;2.10;;
11185;SDS011;5649;52.422;13.754;2022-07-23T14:19:09;2.63;;;1.77;;
11185;SDS011;5649;52.422;13.754;2022-07-23T14:21:35;10.57;;;2.17;;
11185;SDS011;5649;52.422;13.754;2022-07-23T14:24:02;10.50;;;2.70;;
11185;SDS011;5649;52.422;13.754;2022-07-23T14:26:28;1.97;;;1.87;;
11185;SDS011;5649;52.422;13.754;2022-07-23T14:28:54;2.73;;;1.93;;
11185;SDS011;5649;52.422;13.754;2022-07-23T14:31:20;16.60;;;2.23;;
11185;SDS011;5649;52.422;13.754;2022-07-23T14:33:46;6.53;;;1.80;;
11185;SDS011;5649;52.422;13.754;2022-07-23T14:36:12;6.33;;;2.27;;
11185;SDS011;5649;52.422;13.754;2022-07-23T14:38:38;3.67;;;2.10;;
11185;SDS011;5649;52.422;13.754;2022-07-23T14:41:04;4.27;;;1.87;;
11185;SDS011;5649;52.422;13.754;2022-07-23T14:43:33;10.33;;;2.40;;
11185;SDS011;5649;52.422;13.754;2022-07-23T14:46:00;12.00;;;2.83;;
11185;SDS011;5649;52.422;13.754;2022-07-23T14:48:26;10.40;;;2.03;;
11185;SDS011;5649;52.422;13.754;2022-07-23T14:50:52;6.30;;;2.20;;
11185;SDS011;5649;52.422;13.754;2022-07-23T14:53:18;8.53;;;1.63;;
11185;SDS011;5649;52.422;13.754;2022-07-23T14:55:44;2.20;;;1.90;;
11185;SDS011;5649;52.422;13.754;2022-07-23T14:58:10;13.33;;;2.10;;
11185;SDS011;5649;52.422;13.754;2022-07-23T15:00:36;6.30;;;2.20;;
11185;SDS011;5649;52.422;13.754;2022-07-23T15:03:02;2.10;;;1.90;;
11185;SDS011;5649;52.422;13.754;2022-07-23T15:05:28;1.90;;;1.70;;
11185;SDS011;5649;52.422;13.754;2022-07-23T15:07:54;3.77;;;2.00;;
11185;SDS011;5649;52.422;13.754;2022-07-23T15:10:21;3.17;;;1.60;;
11185;SDS011;5649;52.422;13.754;2022-07-23T15:12:47;5.90;;;1.87;;
11185;SDS011;5649;52.422;13.754;2022-07-23T15:15:13;4.03;;;1.77;;
11185;SDS011;5649;52.422;13.754;2022-07-23T15:17:39;3.30;;;2.37;;
11185;SDS011;5649;52.422;13.754;2022-07-23T15:20:05;7.03;;;2.20;;
11185;SDS011;5649;52.422;13.754;2022-07-23T15:22:31;5.83;;;2.03;;
11185;SDS011;5649;52.422;13.754;2022-07-23T15:24:58;9.83;;;2.03;;
11185;SDS011;5649;52.422;13.754;2022-07-23T15:27:24;5.43;;;2.00;;
11185;SDS011;5649;52.422;13.754;2022-07-23T15:29:50;2.50;;;1.70;;